Airport View

Enter AWOS ICAO identifier for current METAR.

ex. KFNL

KOLV 171235Z AUTO 00000KT 10SM CLR 00/M01 A3009 RMK A01

17 Nov 2019 12:44

Frequency: 119.925

Phone: 662-893-5906

Other Area AWOS: KMEM - KNQA - KFYE - KAWM

TAF KMEM 171124Z 1712/1818 VRB02KT P6SM SCT250 FM171700 24005KT P6SM SCT250 FM180100 27003KT P6SM SCT030 BKN080 FM180900 33006KT P6SM SCT030 BKN080